Time;durP1;ratioP1;P1;durP2;ratioP2;P2;SDS_P1;SDS_P2;PMS_P1;PMS_P2;Temp;Humidity;BMP_temperature;BMP_pressure;BME280_temperature;BME280_humidity;BME280_pressure;Samples;Min_cycle;Max_cycle;Signal;HPM_P1;HPM_P2
2022/11/21 05:00:48;;;;;;;6.22;1.20;;;7.10;99.90;;;;;;5669189;23;20139;-70
2022/11/21 05:03:16;;;;;;;5.20;1.03;;;7.10;99.90;;;;;;4916902;29;20119;-70
2022/11/21 05:05:41;;;;;;;4.35;1.10;;;7.10;99.90;;;;;;4919216;29;20020;-70
2022/11/21 05:08:07;;;;;;;5.67;1.40;;;7.00;99.90;;;;;;4917696;29;20517;-69
2022/11/21 05:13:19;;;;;;;2.90;0.80;;;7.00;99.90;;;;;;4918808;29;20052;-69
2022/11/21 05:13:21;;;;;;;5.03;1.20;;;7.10;99.90;;;;;;4939670;23;20020;-73
2022/11/21 05:15:50;;;;;;;5.63;1.20;;;7.00;99.90;;;;;;4902298;29;20409;-74
2022/11/21 05:18:17;;;;;;;4.78;1.20;;;7.00;99.90;;;;;;4900145;29;20024;-73
2022/11/21 05:20:42;;;;;;;5.07;1.20;;;7.00;99.90;;;;;;4900976;29;20033;-73
2022/11/21 05:23:08;;;;;;;2.93;0.80;;;7.00;99.90;;;;;;4901069;29;20383;-75
2022/11/21 05:25:33;;;;;;;2.63;0.87;;;7.10;99.90;;;;;;4880378;29;20545;-73
2022/11/21 05:27:59;;;;;;;5.23;1.17;;;7.10;99.90;;;;;;4880005;29;20056;-73
2022/11/21 05:30:25;;;;;;;4.93;1.10;;;7.10;99.90;;;;;;4879532;29;20035;-73
2022/11/21 05:32:50;;;;;;;6.80;1.50;;;7.20;99.90;;;;;;4895460;29;20037;-72
2022/11/21 05:35:16;;;;;;;6.00;1.37;;;7.20;99.90;;;;;;4881055;29;20113;-73
2022/11/21 05:37:41;;;;;;;3.73;1.20;;;7.20;99.90;;;;;;4895410;29;20040;-68
2022/11/21 05:40:07;;;;;;;8.40;2.13;;;7.10;99.90;;;;;;4876297;29;20109;-71
2022/11/21 05:45:17;;;;;;;8.98;1.67;;;6.90;99.90;;;;;;4880098;29;20048;-69
2022/11/21 05:47:43;;;;;;;5.77;1.27;;;6.90;99.90;;;;;;4880355;29;20069;-66
2022/11/21 05:50:08;;;;;;;5.60;1.20;;;6.80;99.90;;;;;;4880527;29;20095;-66
2022/11/21 05:52:34;;;;;;;5.00;1.33;;;6.80;99.90;;;;;;4880490;29;20029;-66
2022/11/21 05:54:59;;;;;;;7.43;2.17;;;6.80;99.90;;;;;;4880328;29;20262;-69
2022/11/21 05:57:25;;;;;;;6.60;1.93;;;6.80;99.90;;;;;;4879917;29;20107;-70
2022/11/21 05:59:50;;;;;;;5.83;1.53;;;6.90;99.90;;;;;;4880236;29;20036;-70
2022/11/21 06:05:00;;;;;;;5.70;1.67;;;6.80;99.90;;;;;;4880495;29;20060;-66
2022/11/21 06:07:26;;;;;;;6.10;2.00;;;6.70;99.90;;;;;;4879325;29;20029;-67
2022/11/21 06:09:52;;;;;;;7.95;2.00;;;6.80;99.90;;;;;;4880246;29;20025;-66
2022/11/21 06:12:17;;;;;;;8.03;1.90;;;6.70;99.90;;;;;;4880278;29;20467;-67
2022/11/21 06:14:43;;;;;;;7.97;2.23;;;6.80;99.90;;;;;;4879261;29;20043;-67
2022/11/21 06:17:10;;;;;;;8.73;2.10;;;6.80;99.90;;;;;;4889029;29;20052;-66
2022/11/21 06:19:36;;;;;;;9.10;1.92;;;6.70;99.90;;;;;;4867080;29;20069;-67
2022/11/21 06:22:01;;;;;;;8.90;2.00;;;6.70;99.90;;;;;;4893939;29;20419;-66
2022/11/21 06:24:27;;;;;;;7.00;2.53;;;6.80;99.90;;;;;;4878961;29;20033;-67
2022/11/21 06:26:52;;;;;;;8.47;1.97;;;6.70;99.90;;;;;;4880276;29;20037;-66
2022/11/21 06:29:21;;;;;;;7.03;1.97;;;6.80;99.90;;;;;;4880327;29;20058;-67
2022/11/21 06:31:46;;;;;;;10.50;2.50;;;6.80;99.90;;;;;;4883124;29;20399;-68
2022/11/21 06:34:12;;;;;;;6.73;2.00;;;6.70;99.90;;;;;;4861364;29;20033;-69
2022/11/21 06:36:37;;;;;;;8.77;2.47;;;6.80;99.90;;;;;;4878310;29;20414;-68
2022/11/21 06:39:03;;;;;;;5.83;1.73;;;6.70;99.90;;;;;;4878950;29;20777;-67
2022/11/21 06:41:31;;;;;;;10.63;1.87;;;6.80;99.90;;;;;;4860953;29;20120;-67
2022/11/21 06:44:00;;;;;;;8.18;1.90;;;6.80;99.90;;;;;;4861358;29;20033;-67
2022/11/21 06:46:26;;;;;;;8.23;1.98;;;6.80;99.90;;;;;;4878707;29;20501;-67
2022/11/21 06:48:53;;;;;;;12.20;2.33;;;6.80;99.90;;;;;;4879234;29;20029;-66
2022/11/21 06:51:20;;;;;;;10.63;2.78;;;6.80;99.90;;;;;;4875403;29;20048;-68
2022/11/21 06:53:47;;;;;;;10.48;2.17;;;6.80;99.90;;;;;;4878518;29;20474;-67
2022/11/21 06:56:14;;;;;;;8.25;1.85;;;6.80;99.90;;;;;;4879115;29;20025;-67
2022/11/21 06:58:40;;;;;;;10.35;2.30;;;6.80;99.90;;;;;;4880888;29;20089;-68
2022/11/21 07:01:07;;;;;;;13.77;2.23;;;6.80;99.90;;;;;;4883542;29;20029;-67
2022/11/21 07:03:33;;;;;;;14.45;2.70;;;6.80;99.90;;;;;;4885775;29;20046;-67
2022/11/21 07:06:00;;;;;;;9.15;2.10;;;7.20;99.90;;;;;;4884391;29;20508;-69
2022/11/21 07:08:27;;;;;;;12.07;1.90;;;7.20;99.90;;;;;;4883902;29;20426;-69
2022/11/21 07:10:53;;;;;;;9.10;2.42;;;7.30;99.90;;;;;;4870283;29;20036;-67
2022/11/21 07:13:21;;;;;;;11.13;1.97;;;7.30;99.90;;;;;;4899489;29;20028;-68
2022/11/21 07:15:50;;;;;;;7.22;1.95;;;7.30;99.90;;;;;;4886025;29;20037;-68
2022/11/21 07:18:16;;;;;;;9.05;1.60;;;7.20;99.90;;;;;;4885033;29;20025;-69
2022/11/21 07:20:42;;;;;;;13.00;2.20;;;7.10;99.90;;;;;;4883648;29;20028;-67
2022/11/21 07:23:08;;;;;;;11.52;2.00;;;7.10;99.90;;;;;;4884239;29;20037;-69
2022/11/21 07:25:34;;;;;;;8.27;2.03;;;7.10;99.90;;;;;;4883204;29;20025;-69
2022/11/21 07:28:03;;;;;;;10.97;1.77;;;7.10;99.90;;;;;;4882373;29;20068;-68
2022/11/21 07:30:29;;;;;;;5.85;2.30;;;7.00;99.90;;;;;;4882170;29;20033;-68
2022/11/21 07:32:59;;;;;;;9.03;1.97;;;7.00;99.90;;;;;;4882323;29;20061;-69
2022/11/21 07:35:26;;;;;;;15.63;3.10;;;7.00;99.90;;;;;;4882248;29;20021;-69
2022/11/21 07:37:52;;;;;;;7.10;1.60;;;7.10;99.90;;;;;;4882166;29;20065;-69
2022/11/21 07:40:19;;;;;;;7.75;1.88;;;7.00;99.90;;;;;;4883496;29;20068;-70
2022/11/21 07:42:44;;;;;;;10.48;2.15;;;7.00;99.90;;;;;;4881967;29;20120;-69
2022/11/21 07:45:11;;;;;;;7.77;2.10;;;7.00;99.90;;;;;;4882676;29;20144;-70
2022/11/21 07:47:36;;;;;;;6.63;2.13;;;7.00;99.90;;;;;;4883079;29;20085;-70
2022/11/21 07:50:03;;;;;;;8.13;2.33;;;7.00;99.90;;;;;;4883299;29;20487;-69
2022/11/21 07:52:29;;;;;;;13.50;2.20;;;7.00;99.90;;;;;;4882694;29;20033;-69
2022/11/21 07:54:56;;;;;;;10.40;1.90;;;7.00;99.90;;;;;;4881706;29;20081;-70
2022/11/21 07:57:21;;;;;;;;;;;7.10;99.90;;;;;;4883346;29;20033;-69
2022/11/21 07:59:47;;;;;;;9.85;2.53;;;7.10;99.90;;;;;;4881328;29;19912;-70
2022/11/21 08:02:19;;;;;;;9.27;2.27;;;7.10;99.90;;;;;;4881496;29;20029;-70
2022/11/21 08:04:44;;;;;;;9.18;2.03;;;7.10;99.90;;;;;;4881051;29;20025;-69
2022/11/21 08:07:10;;;;;;;11.77;3.20;;;7.10;99.90;;;;;;4882799;29;20033;-70
2022/11/21 08:09:35;;;;;;;9.00;2.20;;;7.10;99.90;;;;;;4884006;29;20062;-71
2022/11/21 08:12:01;;;;;;;11.13;2.20;;;7.10;99.90;;;;;;4882832;29;20021;-70
2022/11/21 08:14:26;;;;;;;7.70;2.10;;;7.10;99.90;;;;;;4881401;29;20461;-70
2022/11/21 08:16:52;;;;;;;11.97;1.87;;;7.20;99.90;;;;;;4883109;29;20409;-70
2022/11/21 08:19:17;;;;;;;10.40;2.30;;;7.30;99.90;;;;;;4882887;29;20029;-71
2022/11/21 08:21:43;;;;;;;10.93;2.40;;;7.30;99.90;;;;;;4882530;29;20067;-70
2022/11/21 08:24:13;;;;;;;7.33;2.00;;;7.30;99.90;;;;;;4881289;29;20043;-70
2022/11/21 08:26:39;;;;;;;8.18;1.90;;;7.30;99.90;;;;;;4881470;29;20097;-71
2022/11/21 08:29:05;;;;;;;9.93;1.90;;;7.40;99.90;;;;;;4880839;29;20025;-69
2022/11/21 08:31:30;;;;;;;11.63;2.30;;;7.50;99.90;;;;;;4881283;29;20395;-71
2022/11/21 08:33:56;;;;;;;15.13;5.57;;;7.50;99.90;;;;;;4880722;29;20021;-71
2022/11/21 08:36:22;;;;;;;13.00;3.93;;;7.50;99.90;;;;;;4880760;29;20029;-70
2022/11/21 08:38:47;;;;;;;4.95;1.90;;;7.60;99.90;;;;;;4881043;29;20032;-70
2022/11/21 08:43:57;;;;;;;10.63;2.05;;;7.60;99.90;;;;;;4883001;29;20119;-70
2022/11/21 08:46:26;;;;;;;8.73;2.60;;;7.70;99.90;;;;;;4880636;29;20116;-71
2022/11/21 08:48:53;;;;;;;11.35;2.50;;;7.70;99.90;;;;;;4880590;29;20025;-71
2022/11/21 08:51:19;;;;;;;10.82;2.42;;;7.70;99.90;;;;;;4880757;29;20469;-72
2022/11/21 08:53:44;;;;;;;10.90;2.30;;;7.70;99.90;;;;;;4881829;29;20057;-70
2022/11/21 08:56:10;;;;;;;11.20;1.93;;;7.70;99.90;;;;;;4881070;29;20266;-71
2022/11/21 08:58:35;;;;;;;8.90;2.50;;;7.80;99.90;;;;;;4882293;29;20061;-71
2022/11/21 09:01:01;;;;;;;7.53;2.17;;;7.80;99.90;;;;;;4880260;29;20025;-72
2022/11/21 09:03:27;;;;;;;6.40;1.50;;;7.80;99.90;;;;;;4881521;29;20032;-73
2022/11/21 09:05:58;;;;;;;8.63;1.70;;;7.70;99.90;;;;;;4881926;29;20081;-71
2022/11/21 09:08:24;;;;;;;4.80;1.20;;;7.80;99.90;;;;;;4880349;29;20352;-71
2022/11/21 09:10:50;;;;;;;6.55;1.20;;;7.90;99.90;;;;;;4881278;29;20560;-72
2022/11/21 09:13:15;;;;;;;5.40;1.10;;;7.90;99.90;;;;;;4884825;29;20029;-71
2022/11/21 09:18:25;;;;;;;9.93;1.38;;;7.80;99.90;;;;;;4881824;29;20046;-72
2022/11/21 09:20:51;;;;;;;2.77;1.27;;;7.80;99.90;;;;;;4880753;29;20040;-72
2022/11/21 09:23:16;;;;;;;5.73;1.93;;;7.80;99.90;;;;;;4880217;29;20103;-71
2022/11/21 09:25:43;;;;;;;4.43;1.33;;;7.80;99.90;;;;;;4879807;29;20033;-72
2022/11/21 09:28:10;;;;;;;4.47;1.17;;;7.70;99.90;;;;;;4881445;29;20092;-71
2022/11/21 09:30:37;;;;;;;7.05;1.33;;;7.80;99.90;;;;;;4879695;29;20340;-71
2022/11/21 09:33:04;;;;;;;9.80;1.90;;;7.70;99.90;;;;;;4881384;29;20448;-72
2022/11/21 09:35:30;;;;;;;4.80;1.65;;;7.90;99.90;;;;;;4879952;29;20084;-71
2022/11/21 09:37:56;;;;;;;6.80;1.42;;;7.90;99.90;;;;;;4881035;29;20025;-72
2022/11/21 09:40:22;;;;;;;9.47;1.70;;;8.00;99.90;;;;;;4879493;29;20107;-72
2022/11/21 09:43:15;;;;;;;7.85;1.27;;;8.00;99.90;;;;;;4881225;29;20105;-71
2022/11/21 09:45:47;;;;;;;8.57;1.65;;;8.10;99.90;;;;;;4880208;29;20037;-71
2022/11/21 09:48:19;;;;;;;10.10;1.85;;;8.20;99.90;;;;;;4881069;29;20037;-72
2022/11/21 09:50:52;;;;;;;8.15;1.75;;;8.10;99.90;;;;;;4880078;29;20025;-71
2022/11/21 09:53:23;;;;;;;5.75;1.15;;;8.20;99.90;;;;;;4881095;29;20534;-71
2022/11/21 09:56:04;;;;;;;5.95;1.17;;;8.20;99.90;;;;;;4880996;29;20033;-71
2022/11/21 09:58:48;;;;;;;7.68;1.65;;;8.10;99.90;;;;;;4880844;29;20081;-71
2022/11/21 10:01:15;;;;;;;7.53;1.30;;;8.00;99.90;;;;;;4880453;29;20035;-71
2022/11/21 10:03:46;;;;;;;6.45;1.35;;;8.10;99.90;;;;;;4880475;29;20033;-71
2022/11/21 10:06:25;;;;;;;7.68;1.40;;;8.40;99.90;;;;;;4880550;29;20112;-72
2022/11/21 10:09:12;;;;;;;7.47;1.60;;;8.90;99.90;;;;;;4879248;29;20025;-72
2022/11/21 10:15:20;;;;;;;8.98;1.40;;;9.40;99.90;;;;;;4880539;29;20036;-72
2022/11/21 10:18:01;;;;;;;7.00;1.33;;;9.40;99.90;;;;;;4879911;29;20025;-71
2022/11/21 10:20:38;;;;;;;6.53;1.40;;;9.40;99.90;;;;;;4879193;29;20321;-72
2022/11/21 10:23:23;;;;;;;8.90;1.58;;;9.40;99.90;;;;;;4879081;29;20172;-71
2022/11/21 10:26:34;;;;;;;10.35;2.15;;;9.40;99.90;;;;;;4879138;29;20040;-72
2022/11/21 10:29:37;;;;;;;11.02;2.00;;;9.40;99.90;;;;;;4807902;29;20465;-71
2022/11/21 10:32:15;;;;;;;8.00;1.77;;;9.60;99.90;;;;;;4815350;29;20042;-72
2022/11/21 10:34:41;;;;;;;9.57;1.75;;;10.00;99.90;;;;;;4808206;29;20046;-72
2022/11/21 10:37:26;;;;;;;6.70;1.98;;;10.10;99.90;;;;;;4822759;29;20035;-72
2022/11/21 10:39:55;;;;;;;5.65;1.92;;;10.20;99.90;;;;;;4808090;29;20039;-72
2022/11/21 10:42:36;;;;;;;8.43;1.73;;;10.10;99.90;;;;;;4808063;29;20026;-72
2022/11/21 10:45:15;;;;;;;7.32;1.88;;;10.30;99.90;;;;;;4808122;29;20125;-73
2022/11/21 10:47:41;;;;;;;8.40;2.03;;;10.40;99.90;;;;;;4824766;29;20039;-73
2022/11/21 10:50:34;;;;;;;7.85;1.90;;;10.40;99.90;;;;;;4823828;29;20486;-73
2022/11/21 10:56:12;;;;;;;11.52;2.90;;;10.60;99.90;;;;;;4824542;29;20056;-73
2022/11/21 10:58:44;;;;;;;6.82;2.67;;;10.40;99.90;;;;;;4827773;29;20054;-72
2022/11/21 11:01:19;;;;;;;12.25;2.55;;;10.30;99.90;;;;;;4878215;29;20028;-71
2022/11/21 11:03:44;;;;;;;6.75;1.73;;;10.20;99.90;;;;;;4878710;29;20057;-72
2022/11/21 11:06:10;;;;;;;5.90;1.63;;;10.20;99.90;;;;;;4879190;29;20029;-71
2022/11/21 11:08:51;;;;;;;12.27;1.63;;;10.20;99.90;;;;;;4880887;29;20106;-73
2022/11/21 11:11:20;;;;;;;7.07;1.90;;;10.20;99.90;;;;;;4879371;29;20052;-72
2022/11/21 11:14:01;;;;;;;10.13;2.25;;;10.20;99.90;;;;;;4878128;29;20033;-72
2022/11/21 11:16:28;;;;;;;8.15;2.63;;;10.20;99.90;;;;;;4906203;23;20075;-70
2022/11/21 11:19:19;;;;;;;10.40;1.88;;;10.20;99.90;;;;;;4897220;29;20024;-70
2022/11/21 11:21:45;;;;;;;10.60;2.17;;;10.20;99.90;;;;;;4900541;29;20087;-71
2022/11/21 11:24:10;;;;;;;6.05;2.03;;;9.90;99.90;;;;;;4900491;29;20537;-70
2022/11/21 11:26:48;;;;;;;10.97;1.83;;;10.00;99.90;;;;;;4901386;29;20033;-70
2022/11/21 11:29:28;;;;;;;9.10;2.28;;;10.00;99.90;;;;;;4899581;29;20036;-70
2022/11/21 11:32:14;;;;;;;10.65;2.03;;;10.10;99.90;;;;;;4898958;29;20095;-70
2022/11/21 11:34:58;;;;;;;8.25;2.28;;;10.30;99.90;;;;;;4897155;29;20040;-70
2022/11/21 11:37:48;;;;;;;8.30;2.40;;;10.30;99.90;;;;;;4896376;29;20446;-70
2022/11/21 11:40:20;;;;;;;9.38;2.10;;;10.40;99.90;;;;;;4896584;29;20387;-69
2022/11/21 11:49:24;;;;;;;11.27;1.90;;;10.50;99.90;;;;;;4901165;29;20067;-70
2022/11/21 11:51:55;;;;;;;6.20;1.88;;;10.50;99.90;;;;;;4901079;29;20033;-70
2022/11/21 11:54:32;;;;;;;9.80;2.30;;;10.50;99.90;;;;;;4900325;29;20025;-70
2022/11/21 11:56:58;;;;;;;10.50;1.90;;;10.50;99.90;;;;;;4901135;29;20036;-70
2022/11/21 11:59:35;;;;;;;9.25;2.40;;;10.30;99.90;;;;;;4900949;29;20029;-71
2022/11/21 12:02:20;;;;;;;10.93;1.95;;;10.30;99.90;;;;;;4899729;29;20119;-71
2022/11/21 12:04:58;;;;;;;6.15;1.52;;;10.30;99.90;;;;;;4901979;29;20036;-71
2022/11/21 12:07:35;;;;;;;9.10;1.75;;;10.30;99.90;;;;;;4918487;29;20036;-70
2022/11/21 12:10:23;;;;;;;9.77;1.92;;;10.30;99.90;;;;;;4919503;29;20065;-70
2022/11/21 12:12:53;;;;;;;8.68;1.63;;;10.40;99.90;;;;;;4919039;29;20059;-71
2022/11/21 12:15:48;;;;;;;10.88;2.33;;;10.40;99.90;;;;;;4918267;29;20059;-70
2022/11/21 12:18:20;;;;;;;6.57;2.08;;;10.40;99.90;;;;;;4880916;29;20081;-71
2022/11/21 12:21:04;;;;;;;9.23;1.70;;;10.60;99.90;;;;;;4881982;29;20033;-71
2022/11/21 12:23:35;;;;;;;9.13;1.50;;;10.50;99.90;;;;;;4881744;29;20040;-70
2022/11/21 12:26:35;;;;;;;5.80;2.10;;;10.60;99.90;;;;;;4881511;29;20447;-71
2022/11/21 12:29:12;;;;;;;11.68;1.73;;;10.50;99.90;;;;;;4880545;29;20120;-72
2022/11/21 12:31:58;;;;;;;8.07;1.70;;;10.60;99.90;;;;;;4881500;29;20097;-71
2022/11/21 12:34:56;;;;;;;16.67;3.22;;;10.60;99.90;;;;;;4880103;29;20501;-70
2022/11/21 12:37:50;;;;;;;9.95;1.77;;;10.60;99.90;;;;;;4880031;29;20067;-69
2022/11/21 12:40:24;;;;;;;9.50;1.83;;;10.60;99.90;;;;;;4880015;29;20029;-69
2022/11/21 12:43:13;;;;;;;6.07;1.73;;;10.90;99.90;;;;;;4881232;29;20033;-69
2022/11/21 12:45:48;;;;;;;7.13;1.50;;;11.20;99.90;;;;;;4847089;29;20041;-69
2022/11/21 12:54:41;;;;;;;12.20;2.58;;;11.40;99.90;;;;;;4893983;29;20409;-68
2022/11/21 12:57:18;;;;;;;4.32;1.30;;;11.40;99.90;;;;;;4896039;29;20088;-71
2022/11/21 13:00:00;;;;;;;10.32;1.90;;;11.40;99.90;;;;;;4908629;29;20054;-70
2022/11/21 13:02:50;;;;;;;11.88;5.13;;;11.40;99.90;;;;;;4884743;29;20036;-70
2022/11/21 13:05:31;;;;;;;9.13;2.80;;;11.30;99.90;;;;;;4898901;29;20032;-68
2022/11/21 13:08:09;;;;;;;8.13;2.50;;;11.10;99.90;;;;;;4889513;29;20025;-67
2022/11/21 13:10:37;;;;;;;9.45;1.67;;;11.20;99.90;;;;;;4905107;29;20028;-67
2022/11/21 13:13:08;;;;;;;3.92;1.30;;;11.30;99.90;;;;;;4893139;29;20025;-67
2022/11/21 13:15:47;;;;;;;7.50;1.45;;;11.50;99.90;;;;;;4899767;29;20033;-68
2022/11/21 13:18:21;;;;;;;8.02;1.55;;;11.60;99.90;;;;;;4898682;29;20426;-68
2022/11/21 13:20:49;;;;;;;5.68;1.63;;;11.40;99.90;;;;;;4899326;29;20036;-69
2022/11/21 13:23:34;;;;;;;9.32;1.63;;;11.30;99.90;;;;;;4899250;29;20025;-68
2022/11/21 13:26:00;;;;;;;7.45;1.70;;;11.30;99.90;;;;;;4897872;29;20033;-68
2022/11/21 13:28:31;;;;;;;7.77;1.60;;;11.20;99.90;;;;;;4897760;29;20032;-68
2022/11/21 13:30:58;;;;;;;4.82;1.20;;;11.20;99.90;;;;;;4895689;29;20033;-70
2022/11/21 13:33:33;;;;;;;12.73;4.00;;;11.40;99.90;;;;;;4880230;29;20505;-69
2022/11/21 13:36:04;;;;;;;6.78;1.75;;;11.30;99.90;;;;;;4880607;29;20037;-69
2022/11/21 13:38:31;;;;;;;6.97;1.60;;;11.30;99.90;;;;;;4880560;29;20032;-69
2022/11/21 13:43:41;;;;;;;6.10;1.20;;;11.20;99.90;;;;;;4881124;29;20052;-69
2022/11/21 13:46:07;;;;;;;8.20;1.73;;;11.20;99.90;;;;;;4883173;29;20041;-71
2022/11/21 13:49:00;;;;;;;8.67;1.60;;;11.10;99.90;;;;;;4887071;29;20036;-70
2022/11/21 13:51:45;;;;;;;9.85;3.03;;;10.90;99.90;;;;;;4898839;29;20025;-69
2022/11/21 13:54:38;;;;;;;9.82;4.97;;;10.90;99.90;;;;;;4882637;29;20104;-70
2022/11/21 13:57:34;;;;;;;12.48;4.07;;;11.00;99.90;;;;;;4894288;29;20028;-72
2022/11/21 14:00:15;;;;;;;7.82;3.30;;;10.70;99.90;;;;;;4885228;29;20501;-70
2022/11/21 14:02:59;;;;;;;8.73;2.03;;;10.50;99.90;;;;;;4899103;29;20040;-69
2022/11/21 14:05:40;;;;;;;15.38;8.25;;;10.40;99.90;;;;;;4881231;29;20029;-69
2022/11/21 14:08:23;;;;;;;13.90;5.20;;;10.50;99.90;;;;;;4904609;29;20053;-69
2022/11/21 14:10:54;;;;;;;15.95;4.97;;;10.60;99.90;;;;;;4889758;29;20021;-69
2022/11/21 14:13:27;;;;;;;11.70;4.63;;;10.50;99.90;;;;;;4896695;29;20025;-71
2022/11/21 14:16:24;;;;;;;37.75;13.30;;;10.50;99.90;;;;;;4896721;29;20044;-70
2022/11/21 14:18:51;;;;;;;18.92;7.40;;;10.40;99.90;;;;;;4890460;29;20068;-71
2022/11/21 14:21:25;;;;;;;12.25;5.25;;;10.40;99.90;;;;;;4897891;29;20185;-72
2022/11/21 14:23:57;;;;;;;12.48;5.95;;;10.40;99.90;;;;;;4888429;29;20032;-72
2022/11/21 14:26:24;;;;;;;6.90;2.22;;;10.40;99.90;;;;;;4896985;29;20391;-71
2022/11/21 14:28:50;;;;;;;10.07;2.00;;;10.40;99.90;;;;;;4897720;29;20520;-67
2022/11/21 14:31:16;;;;;;;7.95;1.75;;;10.40;99.90;;;;;;4896372;29;20056;-70
2022/11/21 14:33:43;;;;;;;5.47;1.95;;;10.30;99.90;;;;;;4896709;29;20033;-71
2022/11/21 14:36:13;;;;;;;15.23;2.00;;;10.30;99.90;;;;;;4897570;29;20115;-70
2022/11/21 14:38:52;;;;;;;5.90;2.00;;;10.20;99.90;;;;;;4898091;29;20029;-70
2022/11/21 14:41:25;;;;;;;6.90;1.67;;;10.20;99.90;;;;;;4884636;29;20111;-70
2022/11/21 14:43:57;;;;;;;5.38;1.50;;;10.10;99.90;;;;;;4893277;29;20108;-69
2022/11/21 14:46:33;;;;;;;10.25;2.03;;;10.20;99.90;;;;;;4879081;29;20159;-70
2022/11/21 14:49:17;;;;;;;9.88;2.25;;;10.10;99.90;;;;;;4878800;29;20036;-74
2022/11/21 14:52:02;;;;;;;8.88;2.72;;;10.10;99.90;;;;;;4879470;29;20056;-75
2022/11/21 14:54:37;;;;;;;9.20;2.90;;;10.10;99.90;;;;;;4893808;29;20394;-75
2022/11/21 14:57:06;;;;;;;8.07;2.60;;;10.10;99.90;;;;;;4894778;29;20096;-73
2022/11/21 14:59:39;;;;;;;8.55;2.30;;;10.10;99.90;;;;;;4879184;29;20070;-71
2022/11/21 15:02:37;;;;;;;8.98;1.77;;;10.20;99.90;;;;;;4888938;29;20112;-72
2022/11/21 15:05:06;;;;;;;9.02;2.40;;;10.10;99.90;;;;;;4835097;29;20042;-69
2022/11/21 15:07:43;;;;;;;6.25;1.70;;;10.20;99.90;;;;;;4837410;29;20341;-70
2022/11/21 15:10:13;;;;;;;7.28;2.10;;;10.30;99.90;;;;;;4824472;29;20112;-70
2022/11/21 15:12:47;;;;;;;9.50;1.95;;;10.10;99.90;;;;;;4824459;29;20030;-72
2022/11/21 15:15:31;;;;;;;10.50;1.90;;;10.10;99.90;;;;;;4824662;29;20094;-72
2022/11/21 15:18:02;;;;;;;10.73;2.13;;;9.90;99.90;;;;;;4824989;29;20034;-72
2022/11/21 15:20:28;;;;;;;14.07;2.20;;;9.80;99.90;;;;;;4828647;29;20038;-71
2022/11/21 15:22:56;;;;;;;7.13;1.80;;;9.90;99.90;;;;;;4844594;29;20503;-73
2022/11/21 15:25:28;;;;;;;12.10;2.28;;;10.00;99.90;;;;;;4826467;29;20045;-70
2022/11/21 15:27:59;;;;;;;10.63;2.10;;;10.00;99.90;;;;;;4843184;29;20041;-70
2022/11/21 15:30:30;;;;;;;8.55;2.13;;;10.00;99.90;;;;;;4828018;29;20034;-71
2022/11/21 15:33:02;;;;;;;12.13;2.40;;;9.80;99.90;;;;;;4827760;29;20030;-71
2022/11/21 15:35:47;;;;;;;8.93;2.47;;;9.80;99.90;;;;;;4827777;29;20040;-70
2022/11/21 15:38:16;;;;;;;9.15;2.50;;;9.80;99.90;;;;;;4828413;29;20072;-72
2022/11/21 15:41:09;;;;;;;9.70;3.17;;;9.60;99.90;;;;;;4860345;29;20559;-72
2022/11/21 15:43:40;;;;;;;9.98;2.75;;;9.60;99.90;;;;;;4901919;29;20557;-72
2022/11/21 15:46:19;;;;;;;8.60;2.53;;;9.50;99.90;;;;;;4901229;29;20040;-72
2022/11/21 15:48:53;;;;;;;9.50;2.17;;;9.40;99.90;;;;;;4901374;29;20486;-71
2022/11/21 15:51:22;;;;;;;11.93;2.63;;;9.30;99.90;;;;;;4901298;29;20357;-72
2022/11/21 15:53:48;;;;;;;8.93;2.40;;;9.20;99.90;;;;;;4899462;29;20024;-71
2022/11/21 15:56:16;;;;;;;8.27;2.17;;;9.30;99.90;;;;;;4900873;29;20088;-71
2022/11/21 15:58:42;;;;;;;10.43;2.15;;;9.20;99.90;;;;;;4900440;29;20029;-70
2022/11/21 16:01:13;;;;;;;7.35;2.78;;;9.20;99.90;;;;;;4900727;29;20032;-70
2022/11/21 16:03:39;;;;;;;7.25;1.88;;;9.00;99.90;;;;;;4898916;29;20346;-73
2022/11/21 16:06:04;;;;;;;8.97;2.23;;;9.10;99.90;;;;;;4899462;29;20025;-70
2022/11/21 16:08:30;;;;;;;9.13;1.73;;;9.00;99.90;;;;;;4900775;29;20036;-74
2022/11/21 16:10:55;;;;;;;6.33;2.13;;;8.90;99.90;;;;;;4900475;29;20036;-71
2022/11/21 16:13:21;;;;;;;5.60;1.70;;;8.90;99.90;;;;;;4899007;29;20021;-69
2022/11/21 16:15:47;;;;;;;11.57;2.23;;;8.90;99.90;;;;;;4901109;29;20040;-72
2022/11/21 16:18:12;;;;;;;11.23;2.13;;;8.80;99.90;;;;;;4902666;29;20039;-70
2022/11/21 16:20:38;;;;;;;8.73;2.33;;;8.80;99.90;;;;;;4899782;29;20063;-70
2022/11/21 16:23:04;;;;;;;7.00;2.13;;;8.70;99.90;;;;;;4898950;29;20115;-70
2022/11/21 16:25:29;;;;;;;6.95;2.00;;;8.70;99.90;;;;;;4894221;29;20029;-70
2022/11/21 16:27:56;;;;;;;8.10;2.13;;;8.60;99.90;;;;;;4888975;29;20044;-70
2022/11/21 16:30:21;;;;;;;7.88;2.45;;;8.50;99.90;;;;;;4884200;29;20022;-71
2022/11/21 16:32:47;;;;;;;115.73;62.23;;;8.70;99.90;;;;;;4898179;29;20039;-70
2022/11/21 16:35:12;;;;;;;11.67;2.60;;;8.70;99.90;;;;;;4893478;29;20038;-71
2022/11/21 16:37:38;;;;;;;8.80;2.50;;;8.60;99.90;;;;;;4894514;29;20064;-68
2022/11/21 16:40:04;;;;;;;8.67;2.63;;;8.60;99.90;;;;;;4892687;29;20048;-75
2022/11/21 16:42:30;;;;;;;6.28;2.38;;;8.50;99.90;;;;;;4896842;29;20331;-73
2022/11/21 16:44:55;;;;;;;11.00;2.70;;;8.50;99.90;;;;;;4899214;29;20447;-75
2022/11/21 16:47:21;;;;;;;6.80;2.20;;;8.30;99.90;;;;;;4886505;29;20036;-70
2022/11/21 16:49:47;;;;;;;9.40;2.27;;;8.30;99.90;;;;;;4904759;29;20024;-71
2022/11/21 16:52:13;;;;;;;8.73;2.53;;;8.30;99.90;;;;;;4904179;29;20039;-70
2022/11/21 16:54:39;;;;;;;8.63;2.33;;;8.30;99.90;;;;;;4902260;29;20024;-71
2022/11/21 16:57:05;;;;;;;9.20;2.50;;;8.30;99.90;;;;;;4903885;29;20115;-73
2022/11/21 16:59:31;;;;;;;5.32;2.00;;;8.30;99.90;;;;;;4900541;29;20029;-73
2022/11/21 17:01:58;;;;;;;8.15;2.72;;;8.30;99.90;;;;;;4900416;29;20043;-74
2022/11/21 17:04:23;;;;;;;10.25;3.13;;;8.30;99.90;;;;;;4902088;29;20025;-71
2022/11/21 17:06:49;;;;;;;8.90;3.00;;;8.30;99.90;;;;;;4903507;29;20032;-71
2022/11/21 17:09:15;;;;;;;11.43;3.40;;;8.10;99.90;;;;;;4902585;29;20040;-70
2022/11/21 17:11:41;;;;;;;;;;;8.20;99.90;;;;;;4901343;29;20033;-70
2022/11/21 17:14:09;;;;;;;9.63;2.90;;;8.20;99.90;;;;;;4902192;29;19907;-70
2022/11/21 17:16:36;;;;;;;11.00;2.40;;;8.20;99.90;;;;;;4891037;29;20045;-70
2022/11/21 17:19:03;;;;;;;7.40;2.42;;;8.20;99.90;;;;;;4881283;29;20085;-72
2022/11/21 17:21:29;;;;;;;8.55;2.15;;;8.20;99.90;;;;;;4879403;29;20081;-70
2022/11/21 17:23:55;;;;;;;8.40;2.40;;;8.20;99.90;;;;;;4895125;29;20383;-68
2022/11/21 17:26:23;;;;;;;10.63;2.70;;;8.20;99.90;;;;;;4899434;29;20172;-68
2022/11/21 17:28:54;;;;;;;12.07;3.63;;;8.20;99.90;;;;;;4899600;29;20092;-68
2022/11/21 17:31:20;;;;;;;8.02;2.70;;;8.00;99.90;;;;;;4898235;29;20085;-68
2022/11/21 17:33:50;;;;;;;13.77;3.22;;;8.10;99.90;;;;;;4887078;29;20028;-70
2022/11/21 17:36:20;;;;;;;11.63;3.20;;;8.20;99.90;;;;;;4897360;29;20486;-71
2022/11/21 17:38:46;;;;;;;10.63;2.97;;;8.20;99.90;;;;;;4898281;29;20106;-67
2022/11/21 17:41:14;;;;;;;11.38;3.25;;;8.20;99.90;;;;;;4898425;29;20025;-68
2022/11/21 17:43:40;;;;;;;12.02;3.42;;;8.20;99.90;;;;;;4899430;29;20032;-66
2022/11/21 17:46:16;;;;;;;9.17;3.40;;;8.20;99.90;;;;;;4899214;29;20036;-66
2022/11/21 17:48:43;;;;;;;10.60;3.23;;;8.20;99.90;;;;;;4883931;29;20044;-67
2022/11/21 17:51:18;;;;;;;9.43;2.92;;;8.30;99.90;;;;;;4898190;29;20119;-66
2022/11/21 17:53:45;;;;;;;8.88;3.33;;;8.20;99.90;;;;;;4889802;29;20028;-66
2022/11/21 17:56:14;;;;;;;8.13;3.10;;;8.20;99.90;;;;;;4899286;29;20024;-68
2022/11/21 17:58:40;;;;;;;8.32;2.45;;;8.20;99.90;;;;;;4898009;29;20060;-66
2022/11/21 18:01:07;;;;;;;9.90;2.53;;;8.20;99.90;;;;;;4897395;29;20052;-66
2022/11/21 18:03:34;;;;;;;9.48;2.80;;;8.30;99.90;;;;;;4886745;29;20036;-67
2022/11/21 18:06:05;;;;;;;7.15;2.60;;;8.30;99.90;;;;;;4879985;29;20029;-67
2022/11/21 18:08:33;;;;;;;13.60;2.65;;;8.30;99.90;;;;;;4880396;29;20451;-67
2022/11/21 18:10:58;;;;;;;8.57;2.53;;;8.40;99.90;;;;;;4880167;29;20073;-66
2022/11/21 18:13:25;;;;;;;8.17;2.60;;;8.40;99.90;;;;;;4880156;29;20382;-68
2022/11/21 18:15:50;;;;;;;11.73;2.70;;;8.30;99.90;;;;;;4879777;29;20281;-66
2022/11/21 18:18:16;;;;;;;16.10;5.80;;;8.40;99.90;;;;;;4878989;29;20033;-70
2022/11/21 18:20:41;;;;;;;7.80;3.03;;;8.40;99.90;;;;;;4878618;29;20032;-70
2022/11/21 18:23:07;;;;;;;9.13;3.30;;;8.40;99.90;;;;;;4880076;29;20033;-70
2022/11/21 18:25:37;;;;;;;7.57;2.83;;;8.30;99.90;;;;;;4880076;29;20108;-70
2022/11/21 18:28:04;;;;;;;9.85;3.35;;;8.30;99.90;;;;;;4890558;29;20029;-74
2022/11/21 18:30:30;;;;;;;11.75;4.38;;;8.40;99.90;;;;;;4896885;29;20029;-67
2022/11/21 18:32:56;;;;;;;14.32;5.13;;;8.40;99.90;;;;;;4898890;29;20148;-67
2022/11/21 18:35:21;;;;;;;14.80;4.67;;;8.30;99.90;;;;;;4899593;29;20068;-67
2022/11/21 18:37:47;;;;;;;12.57;3.23;;;8.30;99.90;;;;;;4899918;29;20048;-67
2022/11/21 18:40:12;;;;;;;10.37;3.20;;;8.30;99.90;;;;;;4899849;29;20045;-67
2022/11/21 18:42:38;;;;;;;7.40;3.33;;;8.30;99.90;;;;;;4899190;29;20107;-66